createdAt,value
2019-02-25T00:00:50.502Z,16.07
2019-02-25T00:03:19.217Z,15.30
2019-02-25T00:05:47.709Z,16.17
2019-02-25T00:08:16.220Z,15.72
2019-02-25T00:10:46.402Z,19.02
2019-02-25T00:13:14.907Z,19.48
2019-02-25T00:15:45.102Z,24.65
2019-02-25T00:18:13.800Z,21.00
2019-02-25T00:20:42.287Z,26.75
2019-02-25T00:23:10.803Z,20.97
2019-02-25T00:25:39.306Z,22.73
2019-02-25T00:28:07.991Z,23.47
2019-02-25T00:30:36.488Z,23.35
2019-02-25T00:33:04.914Z,22.32
2019-02-25T00:35:33.505Z,21.20
2019-02-25T00:38:01.890Z,19.90
2019-02-25T00:40:30.578Z,24.45
2019-02-25T00:42:59.099Z,23.30
2019-02-25T00:45:27.581Z,23.60
2019-02-25T00:47:56.065Z,20.23
2019-02-25T00:50:24.554Z,24.63
2019-02-25T00:52:52.935Z,18.25
2019-02-25T00:55:21.339Z,17.62
2019-02-25T00:57:49.839Z,17.75
2019-02-25T01:00:18.546Z,22.27
2019-02-25T01:02:47.352Z,19.37
2019-02-25T01:05:16.011Z,19.30
2019-02-25T01:07:44.499Z,14.80
2019-02-25T01:10:13.728Z,18.70
2019-02-25T01:12:46.812Z,13.58
2019-02-25T01:15:15.839Z,15.83
2019-02-25T01:17:44.242Z,15.63
2019-02-25T01:20:12.997Z,16.12
2019-02-25T01:22:41.495Z,15.80
2019-02-25T01:25:10.244Z,16.40
2019-02-25T01:27:38.642Z,21.65
2019-02-25T01:30:10.011Z,16.57
2019-02-25T01:32:38.738Z,16.80
2019-02-25T01:35:09.660Z,17.32
2019-02-25T01:37:38.062Z,21.62
2019-02-25T01:40:08.744Z,16.50
2019-02-25T01:42:45.793Z,17.00
2019-02-25T01:45:14.779Z,18.02
2019-02-25T01:47:43.275Z,18.02
2019-02-25T01:50:11.668Z,20.88
2019-02-25T01:52:40.089Z,19.20
2019-02-25T01:55:08.860Z,17.40
2019-02-25T01:57:37.358Z,20.68
2019-02-25T02:00:11.478Z,17.52
2019-02-25T02:02:40.004Z,15.80
2019-02-25T02:05:08.785Z,17.17
2019-02-25T02:07:37.194Z,17.55
2019-02-25T02:10:07.358Z,16.00
2019-02-25T02:12:36.107Z,17.98
2019-02-25T02:15:07.398Z,19.55
2019-02-25T02:17:36.077Z,15.95
2019-02-25T02:20:05.421Z,19.57
2019-02-25T02:22:33.963Z,15.28
2019-02-25T02:25:03.239Z,18.40
2019-02-25T02:27:31.737Z,16.12
2019-02-25T02:30:00.412Z,21.02
2019-02-25T02:32:28.863Z,18.65
2019-02-25T02:34:57.286Z,16.30
2019-02-25T02:37:25.679Z,18.50
2019-02-25T02:39:54.091Z,16.32
2019-02-25T02:42:23.387Z,16.93
2019-02-25T02:45:00.057Z,14.78
2019-02-25T02:47:55.141Z,14.58
2019-02-25T02:50:26.031Z,16.45
2019-02-25T02:52:54.536Z,19.00
2019-02-25T02:55:22.956Z,16.05
2019-02-25T02:57:51.637Z,17.48
2019-02-25T03:00:20.130Z,18.80
2019-02-25T03:02:48.746Z,19.10
2019-02-25T03:05:18.191Z,17.73
2019-02-25T03:07:48.410Z,15.70
2019-02-25T03:10:18.021Z,17.62
2019-02-25T03:12:50.996Z,19.70
2019-02-25T03:15:20.834Z,16.87
2019-02-25T03:17:49.443Z,16.67
2019-02-25T03:20:18.298Z,14.13
2019-02-25T03:22:46.727Z,17.10
2019-02-25T03:25:16.031Z,17.70
2019-02-25T03:27:44.519Z,16.17
2019-02-25T03:30:18.604Z,13.70
2019-02-25T03:32:47.833Z,14.45
2019-02-25T03:35:16.518Z,18.55
2019-02-25T03:37:45.014Z,13.35
2019-02-25T03:40:16.053Z,13.65
2019-02-25T03:42:51.597Z,16.67
2019-02-25T03:45:20.049Z,13.00
2019-02-25T03:47:48.672Z,24.00
2019-02-25T03:50:18.495Z,17.73
2019-02-25T03:52:48.698Z,14.67
2019-02-25T03:55:17.419Z,13.37
2019-02-25T03:57:45.936Z,14.63
2019-02-25T04:00:19.769Z,12.85
2019-02-25T04:02:48.308Z,16.07
2019-02-25T04:05:16.789Z,19.05
2019-02-25T04:07:45.507Z,16.23
2019-02-25T04:10:13.999Z,13.85
2019-02-25T04:12:51.170Z,14.53
2019-02-25T04:15:23.715Z,16.25
2019-02-25T04:17:52.194Z,14.70
2019-02-25T04:20:20.605Z,16.43
2019-02-25T04:22:50.797Z,17.40
2019-02-25T04:25:19.188Z,17.60
2019-02-25T04:27:48.573Z,17.77
2019-02-25T04:30:17.005Z,22.90
2019-02-25T04:32:45.410Z,22.30
2019-02-25T04:35:13.913Z,15.05
2019-02-25T04:37:42.370Z,18.20
2019-02-25T04:40:11.759Z,19.17
2019-02-25T04:42:41.284Z,16.17
2019-02-25T04:45:13.675Z,17.25
2019-02-25T04:47:42.773Z,20.65
2019-02-25T04:50:11.824Z,15.90
2019-02-25T04:52:40.332Z,21.15
2019-02-25T04:55:09.392Z,19.20
2019-02-25T04:57:37.972Z,19.05
2019-02-25T05:00:15.084Z,15.87
2019-02-25T05:02:43.592Z,17.90
2019-02-25T05:05:12.346Z,17.50
2019-02-25T05:07:40.798Z,18.48
2019-02-25T05:10:11.734Z,19.30
2019-02-25T05:12:51.285Z,15.98
2019-02-25T05:15:23.228Z,19.25
2019-02-25T05:17:51.608Z,17.48
2019-02-25T05:20:20.022Z,16.27
2019-02-25T05:22:50.279Z,14.87
2019-02-25T05:25:18.898Z,20.05
2019-02-25T05:27:47.501Z,16.87
2019-02-25T05:30:16.117Z,17.35
2019-02-25T05:32:44.645Z,14.98
2019-02-25T05:35:13.252Z,18.45
2019-02-25T05:37:42.342Z,18.45
2019-02-25T05:40:13.710Z,21.30
2019-02-25T05:42:44.264Z,17.73
2019-02-25T05:45:15.186Z,14.85
2019-02-25T05:47:43.747Z,22.42
2019-02-25T05:50:13.314Z,18.60
2019-02-25T05:52:41.914Z,17.93
2019-02-25T05:55:11.967Z,20.50
2019-02-25T05:57:40.655Z,23.15
2019-02-25T06:00:14.314Z,18.20
2019-02-25T06:02:42.733Z,21.20
2019-02-25T06:05:11.162Z,20.65
2019-02-25T06:07:39.543Z,22.62
2019-02-25T06:10:08.418Z,22.05
2019-02-25T06:12:43.246Z,21.73
2019-02-25T06:15:13.816Z,19.75
2019-02-25T06:17:44.007Z,20.08
2019-02-25T06:20:13.408Z,17.40
2019-02-25T06:22:43.715Z,21.35
2019-02-25T06:25:12.554Z,19.75
2019-02-25T06:27:41.177Z,17.45
2019-02-25T06:30:13.682Z,21.02
2019-02-25T06:32:42.161Z,22.93
2019-02-25T06:35:10.663Z,16.02
2019-02-25T06:37:39.166Z,19.02
2019-02-25T06:40:09.819Z,16.50
2019-02-25T06:42:46.112Z,19.07
2019-02-25T06:45:16.621Z,15.13
2019-02-25T06:47:45.212Z,20.97
2019-02-25T06:50:14.292Z,24.50
2019-02-25T06:52:44.537Z,21.50
2019-02-25T06:55:14.344Z,20.32
2019-02-25T06:57:42.734Z,23.70
2019-02-25T07:00:14.661Z,19.17
2019-02-25T07:02:43.151Z,16.02
2019-02-25T07:05:17.703Z,19.35
2019-02-25T07:08:11.747Z,16.87
2019-02-25T07:10:45.111Z,16.40
2019-02-25T07:13:21.993Z,16.60
2019-02-25T07:16:13.187Z,18.45
2019-02-25T07:19:01.067Z,19.35
2019-02-25T07:21:58.382Z,16.15
2019-02-25T07:24:58.476Z,15.70
2019-02-25T07:27:53.682Z,20.17
2019-02-25T07:30:27.548Z,19.73
2019-02-25T07:33:11.814Z,18.17
2019-02-25T07:36:05.695Z,17.55
2019-02-25T07:38:41.156Z,14.43
2019-02-25T07:41:28.704Z,16.52
2019-02-25T07:44:08.354Z,15.85
2019-02-25T07:46:50.125Z,14.80
2019-02-25T07:49:30.817Z,16.73
2019-02-25T07:52:12.121Z,18.57
2019-02-25T07:55:03.227Z,17.67
2019-02-25T07:58:02.079Z,20.77
2019-02-25T08:00:38.569Z,19.60
2019-02-25T08:03:26.617Z,17.17
2019-02-25T08:06:03.849Z,18.00
2019-02-25T08:08:55.671Z,14.87
2019-02-25T08:11:42.670Z,19.53
2019-02-25T08:14:29.671Z,19.70
2019-02-25T08:17:20.818Z,18.67
2019-02-25T08:19:56.634Z,20.20
2019-02-25T08:22:40.602Z,14.57
2019-02-25T08:25:22.715Z,19.70
2019-02-25T08:28:11.368Z,15.73
2019-02-25T08:31:02.688Z,16.37
2019-02-25T08:34:05.866Z,24.33
2019-02-25T08:38:01.259Z,19.70
2019-02-25T08:41:09.928Z,15.77
2019-02-25T08:44:03.809Z,22.40
2019-02-25T08:46:51.369Z,19.03
2019-02-25T08:49:26.724Z,17.60
2019-02-25T08:51:55.164Z,20.27
2019-02-25T08:54:24.208Z,22.27
2019-02-25T08:56:52.842Z,26.00
2019-02-25T08:59:21.484Z,16.43
2019-02-25T09:01:50.119Z,16.03
2019-02-25T09:04:19.258Z,21.50
2019-02-25T09:06:47.809Z,19.53
2019-02-25T09:09:16.465Z,23.67
2019-02-25T09:11:45.992Z,13.50
2019-02-25T09:14:16.356Z,15.50
2019-02-25T09:16:46.777Z,17.27
2019-02-25T09:19:15.370Z,23.50
2019-02-25T09:21:44.064Z,23.43
2019-02-25T09:24:12.679Z,20.40
2019-02-25T09:26:41.253Z,16.33
2019-02-25T09:29:11.431Z,16.53
2019-02-25T09:31:41.763Z,14.67
2019-02-25T09:34:11.799Z,17.23
2019-02-25T09:36:40.304Z,16.47
2019-02-25T09:39:11.664Z,18.70
2019-02-25T09:41:40.200Z,20.20
2019-02-25T09:44:08.635Z,12.70
2019-02-25T09:46:37.059Z,17.90
2019-02-25T09:49:07.361Z,14.07
2019-02-25T09:51:35.979Z,20.53
2019-02-25T09:54:04.470Z,18.00
2019-02-25T09:56:33.798Z,18.13
2019-02-25T09:59:04.095Z,16.60
2019-02-25T10:01:32.625Z,15.40
2019-02-25T10:04:01.106Z,14.77
2019-02-25T10:06:31.360Z,12.47
2019-02-25T10:08:59.786Z,13.37
2019-02-25T10:11:28.174Z,14.90
2019-02-25T10:13:56.727Z,13.50
2019-02-25T10:16:25.260Z,15.53
2019-02-25T10:18:53.691Z,20.60
2019-02-25T10:21:22.307Z,16.13
2019-02-25T10:23:50.888Z,14.87
2019-02-25T10:26:19.289Z,11.63
2019-02-25T10:28:47.817Z,12.13
2019-02-25T10:31:17.518Z,13.50
2019-02-25T10:33:46.107Z,13.50
2019-02-25T10:36:14.623Z,12.20
2019-02-25T10:38:44.581Z,13.30
2019-02-25T10:41:13.121Z,17.37
2019-02-25T10:43:41.563Z,17.07
2019-02-25T10:46:13.844Z,15.43
2019-02-25T10:48:42.416Z,11.83
2019-02-25T10:51:11.877Z,13.07
2019-02-25T10:53:43.105Z,14.33
2019-02-25T10:56:33.468Z,11.40
2019-02-25T10:59:04.068Z,11.60
2019-02-25T11:01:32.622Z,11.50
2019-02-25T11:04:01.146Z,14.07
2019-02-25T11:06:32.403Z,11.60
2019-02-25T11:09:22.241Z,14.10
2019-02-25T11:11:52.624Z,15.80
2019-02-25T11:14:22.796Z,14.00
2019-02-25T11:16:52.223Z,13.00
2019-02-25T11:19:22.775Z,12.10
2019-02-25T11:21:52.581Z,10.27
2019-02-25T11:24:23.389Z,11.90
2019-02-25T11:26:51.961Z,10.10
2019-02-25T11:29:20.475Z,12.83
2019-02-25T11:31:49.833Z,11.10
2019-02-25T11:34:19.495Z,10.87
2019-02-25T11:36:48.576Z,11.93
2019-02-25T11:39:18.694Z,11.40
2019-02-25T11:41:47.314Z,12.20
2019-02-25T11:44:17.155Z,9.90
2019-02-25T11:46:47.498Z,13.60
2019-02-25T11:49:16.247Z,13.43
2019-02-25T11:51:44.729Z,10.43
2019-02-25T11:54:13.339Z,10.37
2019-02-25T11:56:42.609Z,11.43
2019-02-25T11:59:11.048Z,10.10
2019-02-25T12:01:39.450Z,11.40
2019-02-25T12:04:07.899Z,11.17
2019-02-25T12:06:36.287Z,11.67
2019-02-25T12:09:05.413Z,11.70
2019-02-25T12:11:33.787Z,10.90
2019-02-25T12:14:04.396Z,12.00
2019-02-25T12:16:32.884Z,12.37
2019-02-25T12:19:01.545Z,9.90
2019-02-25T12:21:30.206Z,10.77
2019-02-25T12:23:58.677Z,10.83
2019-02-25T12:26:27.417Z,10.37
2019-02-25T12:28:55.944Z,9.83
2019-02-25T12:31:24.358Z,12.83
2019-02-25T12:33:53.208Z,11.67
2019-02-25T12:36:24.935Z,10.03
2019-02-25T12:38:53.487Z,12.07
2019-02-25T12:41:22.331Z,11.80
2019-02-25T12:43:50.863Z,10.90
2019-02-25T12:46:19.284Z,10.50
2019-02-25T12:48:49.766Z,10.03
2019-02-25T12:51:18.169Z,10.20
2019-02-25T12:53:46.550Z,10.20
2019-02-25T12:56:14.973Z,9.63
2019-02-25T12:58:45.165Z,12.17
2019-02-25T13:01:15.388Z,9.77
2019-02-25T13:03:44.365Z,10.37
2019-02-25T13:06:12.877Z,12.00
2019-02-25T13:08:41.308Z,10.87
2019-02-25T13:11:10.271Z,9.33
2019-02-25T13:13:38.900Z,8.93
2019-02-25T13:16:10.292Z,8.87
2019-02-25T13:18:39.481Z,9.83
2019-02-25T13:21:08.320Z,9.03
2019-02-25T13:23:38.542Z,9.10
2019-02-25T13:26:07.606Z,12.47
2019-02-25T13:28:36.400Z,10.43
2019-02-25T13:31:05.709Z,8.63
2019-02-25T13:33:35.525Z,10.53
2019-02-25T13:36:10.512Z,10.00
2019-02-25T13:38:39.068Z,8.90
2019-02-25T13:41:07.734Z,10.03
2019-02-25T13:43:37.976Z,9.90
2019-02-25T13:46:06.487Z,9.23
2019-02-25T13:48:34.980Z,9.33
2019-02-25T13:51:03.661Z,12.07
2019-02-25T13:53:32.198Z,9.53
2019-02-25T13:56:02.591Z,8.77
2019-02-25T13:58:30.984Z,8.70
2019-02-25T14:01:00.437Z,7.70
2019-02-25T14:03:29.089Z,9.70
2019-02-25T14:05:58.292Z,8.33
2019-02-25T14:08:27.151Z,8.53
2019-02-25T14:10:55.555Z,9.10
2019-02-25T14:13:24.092Z,9.63
2019-02-25T14:15:53.211Z,10.17
2019-02-25T14:18:21.835Z,9.00
2019-02-25T14:20:50.433Z,9.37
2019-02-25T14:23:20.356Z,9.03
2019-02-25T14:25:49.000Z,9.07
2019-02-25T14:28:17.522Z,10.00
2019-02-25T14:30:46.035Z,8.30
2019-02-25T14:33:14.883Z,8.40
2019-02-25T14:35:43.477Z,9.27
2019-02-25T14:38:14.745Z,11.20
2019-02-25T14:40:44.855Z,8.37
2019-02-25T14:43:15.695Z,7.87
2019-02-25T14:45:46.627Z,10.40
2019-02-25T14:48:20.412Z,9.47
2019-02-25T14:50:47.438Z,9.13
2019-02-25T14:53:16.236Z,8.53
2019-02-25T14:55:47.769Z,8.10
2019-02-25T14:58:17.602Z,8.17
2019-02-25T15:00:46.260Z,8.20
2019-02-25T15:03:15.618Z,7.70
2019-02-25T15:05:44.372Z,8.20
2019-02-25T15:08:12.837Z,8.53
2019-02-25T15:10:42.933Z,12.03
2019-02-25T15:13:15.200Z,10.17
2019-02-25T15:15:45.418Z,9.47
2019-02-25T15:18:14.564Z,9.30
2019-02-25T15:20:45.064Z,10.30
2019-02-25T15:23:16.605Z,10.80
2019-02-25T15:25:47.044Z,10.30
2019-02-25T15:28:18.293Z,11.73
2019-02-25T15:30:49.223Z,11.80
2019-02-25T15:33:17.670Z,9.67
2019-02-25T15:35:46.068Z,15.70
2019-02-25T15:38:14.572Z,7.77
2019-02-25T15:40:43.093Z,10.60
2019-02-25T15:43:18.118Z,7.57
2019-02-25T15:45:46.308Z,10.10
2019-02-25T15:48:17.824Z,9.30
2019-02-25T15:50:48.428Z,10.53
2019-02-25T15:53:17.416Z,10.00
2019-02-25T15:55:47.848Z,9.63
2019-02-25T15:58:16.809Z,7.90
2019-02-25T16:00:45.876Z,7.50
2019-02-25T16:03:16.331Z,8.40
2019-02-25T16:05:44.887Z,10.20
2019-02-25T16:08:17.225Z,8.33
2019-02-25T16:10:47.237Z,8.50
2019-02-25T16:13:18.021Z,8.67
2019-02-25T16:15:46.516Z,12.40
2019-02-25T16:18:15.341Z,8.63
2019-02-25T16:20:46.202Z,15.03
2019-02-25T16:23:14.442Z,12.20
2019-02-25T16:25:43.675Z,10.20
2019-02-25T16:28:13.081Z,10.57
2019-02-25T16:30:44.442Z,9.70
2019-02-25T16:33:14.499Z,9.00
2019-02-25T16:35:45.480Z,12.43
2019-02-25T16:38:14.216Z,8.77
2019-02-25T16:40:42.911Z,8.70
2019-02-25T16:43:18.965Z,12.23
2019-02-25T16:45:49.340Z,7.80
2019-02-25T16:48:19.321Z,8.33
2019-02-25T16:50:48.307Z,15.30
2019-02-25T16:53:18.292Z,10.53
2019-02-25T16:55:49.047Z,9.33
2019-02-25T16:58:18.369Z,13.03
2019-02-25T17:00:47.042Z,6.93
2019-02-25T17:03:16.154Z,9.53
2019-02-25T17:05:47.787Z,14.93
2019-02-25T17:08:19.838Z,23.63
2019-02-25T17:10:49.583Z,24.47
2019-02-25T17:13:20.818Z,23.33
2019-02-25T17:15:49.452Z,37.13
2019-02-25T17:18:17.856Z,28.90
2019-02-25T17:20:49.707Z,27.90
2019-02-25T17:23:16.931Z,29.70
2019-02-25T17:25:45.749Z,25.50
2019-02-25T17:28:15.252Z,24.33
2019-02-25T17:30:45.584Z,28.00
2019-02-25T17:33:15.119Z,28.37
2019-02-25T17:35:45.241Z,25.80
2019-02-25T17:38:14.231Z,31.07
2019-02-25T17:40:42.645Z,24.20
2019-02-25T17:43:20.259Z,21.07
2019-02-25T17:45:49.126Z,23.80
2019-02-25T17:48:19.143Z,21.80
2019-02-25T17:50:48.981Z,18.70
2019-02-25T17:53:17.376Z,18.60
2019-02-25T17:55:46.565Z,22.30
2019-02-25T17:58:16.952Z,26.63
2019-02-25T18:00:46.601Z,22.20
2019-02-25T18:03:17.202Z,25.93
2019-02-25T18:05:45.626Z,22.97
2019-02-25T18:08:15.409Z,34.63
2019-02-25T18:10:46.042Z,40.13
2019-02-25T18:13:22.238Z,38.87
2019-02-25T18:15:53.727Z,35.63
2019-02-25T18:18:24.625Z,29.87
2019-02-25T18:20:53.692Z,25.50
2019-02-25T18:23:22.615Z,24.83
2019-02-25T18:25:53.624Z,27.17
2019-02-25T18:28:22.582Z,27.90
2019-02-25T18:30:51.652Z,24.00
2019-02-25T18:33:22.630Z,19.90
2019-02-25T18:35:51.130Z,22.47
2019-02-25T18:38:21.169Z,20.57
2019-02-25T18:40:50.219Z,21.90
2019-02-25T18:43:24.131Z,24.63
2019-02-25T18:45:52.566Z,18.97
2019-02-25T18:48:22.802Z,27.17
2019-02-25T18:50:54.232Z,25.77
2019-02-25T18:53:22.872Z,26.60
2019-02-25T18:55:54.526Z,24.20
2019-02-25T18:58:24.643Z,21.93
2019-02-25T19:00:53.246Z,25.60
2019-02-25T19:03:21.649Z,27.30
2019-02-25T19:05:51.043Z,30.50
2019-02-25T19:08:22.884Z,24.27
2019-02-25T19:10:52.714Z,24.20
2019-02-25T19:13:24.856Z,26.77
2019-02-25T19:15:54.875Z,21.87
2019-02-25T19:18:24.231Z,23.90
2019-02-25T19:20:52.893Z,26.60
2019-02-25T19:23:21.754Z,28.37
2019-02-25T19:25:50.171Z,28.60
2019-02-25T19:28:21.085Z,26.07
2019-02-25T19:30:50.695Z,35.07
2019-02-25T19:33:20.659Z,32.00
2019-02-25T19:35:49.599Z,26.80
2019-02-25T19:38:18.594Z,29.77
2019-02-25T19:40:51.260Z,24.43
2019-02-25T19:43:23.564Z,24.67
2019-02-25T19:45:52.251Z,19.43
2019-02-25T19:48:22.660Z,17.63
2019-02-25T19:50:53.622Z,33.00
2019-02-25T19:53:21.799Z,22.73
2019-02-25T19:55:51.836Z,27.80
2019-02-25T19:58:24.215Z,20.83
2019-02-25T20:00:56.162Z,25.83
2019-02-25T20:03:23.150Z,22.53
2019-02-25T20:05:53.858Z,23.30
2019-02-25T20:08:22.301Z,25.20
2019-02-25T20:10:54.348Z,24.27
2019-02-25T20:13:24.772Z,20.03
2019-02-25T20:15:55.828Z,19.60
2019-02-25T20:18:24.661Z,24.37
2019-02-25T20:20:55.042Z,19.77
2019-02-25T20:23:24.951Z,25.33
2019-02-25T20:25:55.681Z,27.40
2019-02-25T20:28:26.816Z,23.87
2019-02-25T20:30:55.514Z,27.07
2019-02-25T20:33:30.519Z,24.33
2019-02-25T20:35:56.025Z,31.83
2019-02-25T20:38:27.151Z,21.30
2019-02-25T20:40:57.888Z,20.33
2019-02-25T20:43:28.248Z,20.27
2019-02-25T20:45:59.343Z,19.80
2019-02-25T20:48:27.861Z,22.70
2019-02-25T20:50:59.711Z,20.90
2019-02-25T20:53:27.357Z,21.33
2019-02-25T20:55:58.817Z,20.43
2019-02-25T20:58:27.369Z,22.03
2019-02-25T21:00:55.766Z,23.70
2019-02-25T21:03:25.368Z,26.10
2019-02-25T21:05:54.552Z,25.97
2019-02-25T21:08:23.526Z,34.47
2019-02-25T21:10:52.368Z,33.53
2019-02-25T21:13:30.786Z,30.70
2019-02-25T21:15:58.702Z,29.67
2019-02-25T21:18:29.348Z,28.07
2019-02-25T21:20:58.743Z,27.13
2019-02-25T21:23:27.139Z,22.67
2019-02-25T21:25:57.690Z,25.47
2019-02-25T21:28:29.065Z,18.80
2019-02-25T21:30:56.256Z,29.70
2019-02-25T21:33:25.861Z,21.10
2019-02-25T21:35:54.977Z,18.60
2019-02-25T21:38:24.315Z,22.30
2019-02-25T21:40:54.927Z,15.43
2019-02-25T21:43:29.000Z,20.73
2019-02-25T21:46:00.954Z,17.80
2019-02-25T21:48:31.833Z,16.50
2019-02-25T21:51:02.337Z,16.67
2019-02-25T21:53:31.702Z,16.60
2019-02-25T21:56:04.727Z,17.20
2019-02-25T21:58:32.359Z,21.48
2019-02-25T22:01:01.296Z,20.10
2019-02-25T22:03:29.807Z,18.87
2019-02-25T22:06:02.192Z,17.52
2019-02-25T22:08:31.849Z,20.08
2019-02-25T22:11:12.013Z,19.73
2019-02-25T22:13:31.403Z,17.92
2019-02-25T22:16:01.799Z,22.62
2019-02-25T22:18:31.847Z,19.87
2019-02-25T22:21:00.540Z,14.60
2019-02-25T22:23:32.757Z,19.40
2019-02-25T22:26:02.165Z,15.23
2019-02-25T22:28:32.743Z,15.87
2019-02-25T22:31:01.896Z,19.73
2019-02-25T22:33:30.508Z,15.33
2019-02-25T22:35:59.007Z,16.67
2019-02-25T22:38:27.415Z,17.83
2019-02-25T22:40:59.426Z,13.33
2019-02-25T22:43:30.017Z,11.47
2019-02-25T22:46:00.168Z,16.10
2019-02-25T22:48:28.772Z,15.37
2019-02-25T22:50:57.756Z,14.80
2019-02-25T22:53:28.328Z,14.97
2019-02-25T22:55:56.765Z,14.90
2019-02-25T22:58:25.185Z,18.70
2019-02-25T23:00:58.838Z,14.70
2019-02-25T23:03:27.792Z,17.83
2019-02-25T23:05:56.621Z,16.23
2019-02-25T23:08:25.981Z,16.33
2019-02-25T23:10:54.935Z,17.10
2019-02-25T23:13:32.009Z,19.23
2019-02-25T23:16:02.486Z,15.03
2019-02-25T23:18:31.094Z,16.65
2019-02-25T23:21:01.129Z,17.80
2019-02-25T23:23:30.515Z,16.17
2019-02-25T23:26:01.878Z,13.60
2019-02-25T23:28:30.608Z,13.40
2019-02-25T23:30:59.181Z,13.83
2019-02-25T23:33:27.568Z,15.93
2019-02-25T23:35:56.175Z,15.40
2019-02-25T23:38:24.827Z,12.85
2019-02-25T23:40:53.348Z,13.07
2019-02-25T23:43:33.755Z,11.83
2019-02-25T23:46:04.513Z,11.63
2019-02-25T23:48:36.401Z,13.50
2019-02-25T23:51:04.611Z,14.00
2019-02-25T23:53:35.097Z,13.47
2019-02-25T23:56:03.319Z,11.20
2019-02-25T23:58:31.999Z,13.30
